Time;durP1;ratioP1;P1;durP2;ratioP2;P2;SDS_P1;SDS_P2;PMS_P1;PMS_P2;Temp;Humidity;BMP_temperature;BMP_pressure;BME280_temperature;BME280_humidity;BME280_pressure;Samples;Min_cycle;Max_cycle;Signal;HPM_P1;HPM_P2
2021/03/30 00:01:17;;;;;;;11.52;6.00;;;11.10;66.60;;;;;;5054449;28;20024;-78
2021/03/30 00:03:44;;;;;;;11.05;6.13;;;11.10;67.30;;;;;;5047606;28;20476;-77
2021/03/30 00:06:10;;;;;;;9.35;5.88;;;11.10;67.30;;;;;;5034442;28;20051;-75
2021/03/30 00:08:36;;;;;;;9.95;6.00;;;11.30;66.90;;;;;;5033795;28;20021;-77
2021/03/30 00:11:02;;;;;;;10.40;6.47;;;11.30;67.00;;;;;;5034671;28;20048;-78
2021/03/30 00:13:28;;;;;;;10.13;5.82;;;11.80;66.40;;;;;;5034315;28;20018;-77
2021/03/30 00:15:54;;;;;;;7.93;5.57;;;11.50;66.30;;;;;;5034393;28;20360;-77
2021/03/30 00:18:20;;;;;;;8.65;5.90;;;11.40;67.40;;;;;;5034409;28;20014;-76
2021/03/30 00:20:46;;;;;;;11.00;6.25;;;11.70;67.60;;;;;;5034437;28;20024;-75
2021/03/30 00:23:11;;;;;;;11.38;6.30;;;12.00;66.40;;;;;;5015838;28;20560;-78
2021/03/30 00:25:37;;;;;;;9.43;6.72;;;11.90;65.70;;;;;;5033840;28;20108;-76
2021/03/30 00:28:04;;;;;;;9.63;6.47;;;11.60;66.40;;;;;;5016294;28;20373;-78
2021/03/30 00:30:30;;;;;;;10.00;6.88;;;11.90;66.80;;;;;;5034356;28;20032;-78
2021/03/30 00:32:56;;;;;;;10.77;6.80;;;11.70;66.40;;;;;;5033903;28;20022;-79
2021/03/30 00:35:22;;;;;;;13.65;7.32;;;11.50;67.60;;;;;;5034447;28;20336;-77
2021/03/30 00:37:49;;;;;;;9.18;6.18;;;11.40;67.40;;;;;;5033735;28;20021;-79
2021/03/30 00:40:15;;;;;;;10.50;6.32;;;11.30;68.60;;;;;;5033740;28;20021;-78
2021/03/30 00:42:41;;;;;;;11.35;6.80;;;11.40;68.40;;;;;;5033517;28;20083;-75
2021/03/30 00:45:09;;;;;;;11.43;6.75;;;11.30;68.60;;;;;;5034014;28;20025;-78
2021/03/30 00:47:36;;;;;;;12.43;6.43;;;11.60;68.70;;;;;;5015842;28;20029;-77
2021/03/30 00:50:05;;;;;;;11.20;6.65;;;11.60;68.10;;;;;;5034078;28;20021;-78
2021/03/30 00:52:32;;;;;;;9.25;6.53;;;11.50;68.60;;;;;;5033220;28;20022;-78
2021/03/30 00:54:58;;;;;;;10.02;6.30;;;11.10;70.40;;;;;;5033522;28;20384;-77
2021/03/30 00:57:24;;;;;;;10.45;6.93;;;11.00;72.90;;;;;;5033517;28;20021;-76
2021/03/30 00:59:49;;;;;;;9.75;6.45;;;11.40;71.80;;;;;;5033962;28;20036;-78
2021/03/30 01:02:15;;;;;;;9.48;6.43;;;11.50;71.10;;;;;;5032982;28;20040;-78
2021/03/30 01:04:41;;;;;;;11.65;6.43;;;11.80;69.70;;;;;;5046513;28;20025;-78
2021/03/30 01:07:07;;;;;;;9.45;6.43;;;11.50;69.90;;;;;;5053227;28;20024;-78
2021/03/30 01:09:42;;;;;;;10.10;6.45;;;11.50;71.00;;;;;;5035084;28;20025;-76
2021/03/30 01:12:16;;;;;;;10.35;7.32;;;11.00;73.80;;;;;;5053131;28;20013;-78
2021/03/30 01:14:42;;;;;;;9.48;6.43;;;11.50;73.10;;;;;;5035085;28;20052;-77
2021/03/30 01:17:45;;;;;;;8.25;6.18;;;11.80;72.00;;;;;;5052817;28;20017;-79
2021/03/30 01:20:48;;;;;;;11.23;5.90;;;11.10;74.10;;;;;;5052915;28;20020;-78
2021/03/30 01:23:17;;;;;;;10.35;6.63;;;10.80;76.70;;;;;;5052789;28;20025;-79
2021/03/30 01:25:52;;;;;;;11.48;6.40;;;11.30;76.30;;;;;;5035447;28;20028;-78
2021/03/30 01:28:30;;;;;;;11.10;6.50;;;11.60;74.60;;;;;;5035052;28;20029;-79
2021/03/30 01:30:57;;;;;;;10.18;6.05;;;11.30;75.60;;;;;;5034901;28;20017;-77
2021/03/30 01:33:28;;;;;;;9.63;6.20;;;11.60;75.20;;;;;;5034885;28;20021;-78
2021/03/30 01:35:56;;;;;;;9.52;5.82;;;11.70;74.00;;;;;;5052504;28;20021;-79
2021/03/30 01:38:23;;;;;;;16.10;5.85;;;11.50;73.80;;;;;;5051841;28;20016;-78
2021/03/30 01:40:54;;;;;;;13.13;7.10;;;11.20;76.60;;;;;;5052681;28;20022;-79
2021/03/30 01:43:22;;;;;;;10.20;5.78;;;11.60;74.90;;;;;;5052527;28;20059;-78
2021/03/30 01:45:56;;;;;;;13.20;6.32;;;11.50;73.80;;;;;;5034850;28;20100;-77
2021/03/30 01:48:23;;;;;;;9.57;5.82;;;11.10;75.40;;;;;;5052588;28;20052;-78
2021/03/30 01:50:52;;;;;;;9.45;6.07;;;11.00;76.50;;;;;;5052040;28;20009;-78
2021/03/30 01:53:20;;;;;;;8.82;5.82;;;11.40;74.90;;;;;;5034660;28;20421;-79
2021/03/30 01:55:49;;;;;;;10.30;6.60;;;11.10;76.00;;;;;;5052482;28;20023;-78
2021/03/30 01:58:20;;;;;;;9.00;6.40;;;11.00;77.10;;;;;;5052243;28;20087;-78
2021/03/30 02:00:47;;;;;;;9.18;6.10;;;11.00;77.00;;;;;;5052402;28;20409;-78
2021/03/30 02:03:15;;;;;;;9.57;5.97;;;10.90;77.90;;;;;;5051827;28;20063;-78
2021/03/30 02:05:42;;;;;;;10.05;6.50;;;11.10;78.10;;;;;;5032391;28;20029;-77
2021/03/30 02:08:09;;;;;;;8.30;5.97;;;11.30;76.60;;;;;;5014713;28;20083;-77
2021/03/30 02:13:04;;;;;;;11.38;5.97;;;11.30;77.10;;;;;;5032530;28;20021;-78
2021/03/30 02:15:29;;;;;;;11.63;6.43;;;11.60;76.60;;;;;;5031977;28;20072;-79
2021/03/30 02:18:00;;;;;;;13.30;5.28;;;11.60;76.80;;;;;;5031962;28;20049;-77
2021/03/30 02:20:34;;;;;;;11.77;6.13;;;11.20;76.70;;;;;;5031852;28;20025;-77
2021/03/30 02:23:08;;;;;;;11.27;6.57;;;11.20;77.80;;;;;;5031927;28;20037;-79
2021/03/30 02:25:35;;;;;;;9.00;6.03;;;11.40;78.40;;;;;;5031808;28;20392;-78
2021/03/30 02:28:08;;;;;;;7.97;5.45;;;11.30;77.20;;;;;;5031605;28;20021;-77
2021/03/30 02:30:36;;;;;;;12.63;6.05;;;11.10;78.50;;;;;;5031735;28;20104;-78
2021/03/30 02:33:05;;;;;;;9.10;6.03;;;11.00;78.30;;;;;;5014084;28;20022;-76
2021/03/30 02:35:32;;;;;;;8.25;5.68;;;11.20;78.70;;;;;;5031705;28;20017;-77
2021/03/30 02:37:59;;;;;;;7.72;6.28;;;11.40;77.90;;;;;;5031868;28;20017;-78
2021/03/30 02:40:25;;;;;;;9.85;6.00;;;11.40;77.30;;;;;;5031749;28;20033;-75
2021/03/30 02:42:54;;;;;;;13.15;6.18;;;11.70;76.40;;;;;;5031849;28;20115;-77
2021/03/30 02:45:26;;;;;;;9.57;5.97;;;11.60;75.90;;;;;;5013846;28;20071;-78
2021/03/30 02:47:55;;;;;;;10.35;5.50;;;11.30;77.50;;;;;;5031568;28;20025;-78
2021/03/30 02:50:22;;;;;;;8.73;6.00;;;11.30;78.30;;;;;;5031603;28;20056;-79
2021/03/30 02:52:49;;;;;;;10.25;5.90;;;11.30;78.50;;;;;;5013959;28;20017;-75
2021/03/30 02:55:15;;;;;;;9.95;6.00;;;11.10;79.20;;;;;;5031631;28;20022;-78
2021/03/30 02:57:41;;;;;;;8.60;5.90;;;11.20;78.50;;;;;;5031696;28;20075;-77
2021/03/30 03:00:12;;;;;;;11.52;6.28;;;11.20;78.50;;;;;;5014008;28;20025;-75
2021/03/30 03:02:38;;;;;;;;;;;11.40;79.10;;;;;;5014094;28;20124;-77
2021/03/30 03:05:08;;;;;;;7.35;5.28;;;11.60;78.70;;;;;;5026662;28;19999;-76
2021/03/30 03:07:39;;;;;;;10.88;5.72;;;11.60;77.40;;;;;;5051215;28;20436;-78
2021/03/30 03:10:09;;;;;;;10.38;5.90;;;11.40;79.40;;;;;;5033336;28;20374;-77
2021/03/30 03:12:42;;;;;;;9.35;6.00;;;11.70;79.50;;;;;;5033399;28;20075;-76
2021/03/30 03:15:11;;;;;;;10.25;6.22;;;11.40;80.00;;;;;;5035541;28;20050;-77
2021/03/30 03:17:39;;;;;;;8.27;6.07;;;11.70;80.40;;;;;;5013700;28;20028;-77
2021/03/30 03:20:07;;;;;;;11.02;5.57;;;11.80;80.00;;;;;;5031032;28;20802;-77
2021/03/30 03:22:34;;;;;;;9.35;5.80;;;11.70;79.30;;;;;;5031267;28;20032;-78
2021/03/30 03:25:00;;;;;;;9.15;6.38;;;11.50;80.70;;;;;;5031487;28;20100;-77
2021/03/30 03:27:28;;;;;;;9.30;6.22;;;11.60;80.70;;;;;;5031193;28;20029;-79
2021/03/30 03:29:56;;;;;;;9.00;6.15;;;11.70;80.80;;;;;;5031664;28;20034;-77
2021/03/30 03:32:25;;;;;;;9.90;5.78;;;11.80;81.60;;;;;;5030805;28;20017;-77
2021/03/30 03:34:50;;;;;;;10.73;5.65;;;11.90;81.00;;;;;;5013368;28;20095;-78
2021/03/30 03:37:16;;;;;;;9.18;5.80;;;11.80;81.10;;;;;;5031156;28;20053;-77
2021/03/30 03:39:42;;;;;;;8.32;5.82;;;11.50;80.00;;;;;;5031152;28;20100;-76
2021/03/30 03:42:08;;;;;;;9.25;5.50;;;11.20;81.30;;;;;;5031032;28;20029;-76
2021/03/30 03:44:34;;;;;;;9.02;5.90;;;11.10;81.90;;;;;;5031119;28;20113;-78
2021/03/30 03:47:00;;;;;;;10.15;6.13;;;11.10;82.50;;;;;;5013180;28;20119;-77
2021/03/30 03:49:27;;;;;;;11.63;5.47;;;11.10;82.40;;;;;;5030966;28;20028;-78
2021/03/30 03:52:05;;;;;;;12.48;5.95;;;11.00;82.40;;;;;;5030917;28;20051;-78
2021/03/30 03:54:33;;;;;;;9.80;5.93;;;11.10;82.60;;;;;;5013496;28;20030;-77
2021/03/30 03:57:15;;;;;;;9.35;5.97;;;11.30;81.60;;;;;;5030878;28;20017;-79
2021/03/30 03:59:45;;;;;;;11.35;6.03;;;11.20;82.20;;;;;;5030658;28;20040;-77
2021/03/30 04:02:16;;;;;;;9.80;6.15;;;11.10;82.50;;;;;;5032785;28;20021;-77
2021/03/30 04:05:08;;;;;;;8.38;5.50;;;11.20;82.30;;;;;;5025349;28;20030;-79
2021/03/30 04:07:48;;;;;;;11.20;6.55;;;11.50;82.50;;;;;;4996932;28;20026;-78
2021/03/30 04:10:21;;;;;;;10.88;5.50;;;11.60;82.90;;;;;;5014482;28;20067;-77
2021/03/30 04:12:48;;;;;;;11.02;6.03;;;11.70;83.50;;;;;;5014322;28;20025;-76
2021/03/30 04:15:15;;;;;;;11.10;5.90;;;11.40;82.90;;;;;;5030915;28;20167;-77
2021/03/30 04:17:42;;;;;;;10.98;6.40;;;11.40;83.40;;;;;;5034449;28;20036;-77
2021/03/30 04:20:11;;;;;;;14.50;7.63;;;11.70;83.30;;;;;;5033888;28;20048;-76
2021/03/30 04:22:37;;;;;;;11.90;6.38;;;11.70;83.60;;;;;;5034339;28;20156;-79
2021/03/30 04:25:06;;;;;;;10.88;6.45;;;11.70;83.60;;;;;;5033966;28;20044;-76
2021/03/30 04:27:32;;;;;;;12.20;6.63;;;11.60;84.00;;;;;;5034102;28;20087;-78
2021/03/30 04:29:58;;;;;;;10.13;6.00;;;11.70;84.40;;;;;;5034353;28;20125;-79
2021/03/30 04:32:24;;;;;;;11.40;6.57;;;11.70;84.80;;;;;;5016571;28;20536;-78
2021/03/30 04:34:50;;;;;;;18.52;8.38;;;11.70;83.80;;;;;;5033652;28;20018;-78
2021/03/30 04:37:16;;;;;;;17.35;7.60;;;11.70;84.10;;;;;;5034229;28;20091;-78
2021/03/30 04:39:42;;;;;;;21.40;10.60;;;11.70;84.50;;;;;;5033987;28;20408;-77
2021/03/30 04:42:08;;;;;;;17.58;8.95;;;11.80;85.40;;;;;;5033722;28;20025;-78
2021/03/30 04:44:33;;;;;;;14.95;6.70;;;11.80;85.50;;;;;;5033946;28;20033;-78
2021/03/30 04:46:59;;;;;;;21.80;7.50;;;11.60;86.80;;;;;;5033737;28;20030;-77
2021/03/30 04:49:25;;;;;;;11.27;6.35;;;11.70;85.60;;;;;;5033768;28;20026;-78
2021/03/30 04:51:51;;;;;;;10.52;6.10;;;11.70;83.80;;;;;;5033378;28;20044;-77
2021/03/30 04:54:17;;;;;;;9.68;6.07;;;11.70;83.20;;;;;;5033573;28;20365;-78
2021/03/30 04:56:42;;;;;;;9.82;5.72;;;11.90;82.50;;;;;;5033698;28;20013;-79
2021/03/30 04:59:08;;;;;;;13.73;7.20;;;12.00;82.00;;;;;;5033533;28;20612;-79
2021/03/30 05:01:34;;;;;;;16.08;9.60;;;12.00;83.60;;;;;;5016018;28;20028;-77
2021/03/30 05:04:00;;;;;;;13.88;7.32;;;12.20;83.30;;;;;;5016918;28;20060;-76
2021/03/30 05:06:26;;;;;;;15.20;7.05;;;12.20;83.20;;;;;;5035103;28;20021;-77
2021/03/30 05:08:52;;;;;;;15.30;7.78;;;12.20;84.60;;;;;;5035006;28;20326;-78
2021/03/30 05:11:17;;;;;;;18.30;7.93;;;12.30;84.50;;;;;;5053188;28;20484;-77
2021/03/30 05:13:43;;;;;;;15.60;7.47;;;12.40;84.10;;;;;;5048639;28;20135;-77
2021/03/30 05:16:09;;;;;;;16.05;6.85;;;12.50;82.80;;;;;;5032969;28;20144;-78
2021/03/30 05:18:35;;;;;;;36.53;20.88;;;12.50;81.40;;;;;;5015348;28;20026;-78
2021/03/30 05:21:00;;;;;;;23.95;12.40;;;12.60;79.70;;;;;;5032616;28;20097;-78
2021/03/30 05:23:26;;;;;;;25.83;15.32;;;12.90;82.90;;;;;;5032685;28;20366;-76
2021/03/30 05:25:52;;;;;;;10.82;7.57;;;12.90;78.80;;;;;;5015161;28;20025;-79
2021/03/30 05:28:18;;;;;;;34.13;21.17;;;12.90;78.30;;;;;;5007769;28;20030;-77
2021/03/30 05:30:44;;;;;;;66.57;38.60;;;13.30;80.20;;;;;;4995246;28;20109;-79
2021/03/30 05:33:09;;;;;;;16.48;10.43;;;13.50;77.90;;;;;;5012728;28;20084;-80
2021/03/30 05:35:35;;;;;;;59.97;35.75;;;13.20;75.70;;;;;;4994925;28;20068;-80
2021/03/30 05:38:01;;;;;;;59.40;33.17;;;13.40;78.70;;;;;;5012780;28;20037;-77
2021/03/30 05:40:27;;;;;;;44.60;27.63;;;13.50;75.30;;;;;;5012864;28;20025;-76
2021/03/30 05:42:54;;;;;;;11.95;7.40;;;13.50;75.20;;;;;;5012626;28;20026;-78
2021/03/30 05:45:21;;;;;;;14.32;8.27;;;13.00;76.70;;;;;;5012528;28;20088;-76
2021/03/30 05:47:51;;;;;;;12.77;7.75;;;12.90;79.70;;;;;;5012751;28;20029;-78
2021/03/30 05:50:19;;;;;;;17.10;7.85;;;12.90;81.30;;;;;;5012723;28;20014;-77
2021/03/30 05:52:49;;;;;;;13.52;7.65;;;12.90;81.70;;;;;;5011466;28;20053;-77
2021/03/30 05:55:25;;;;;;;19.27;7.75;;;13.00;81.60;;;;;;4994750;28;20072;-76
2021/03/30 05:57:53;;;;;;;13.35;8.40;;;12.60;83.80;;;;;;5006081;28;20097;-79
2021/03/30 06:00:44;;;;;;;19.92;10.27;;;12.40;85.50;;;;;;5011732;28;20054;-78
2021/03/30 06:03:14;;;;;;;56.78;31.88;;;12.80;87.20;;;;;;5001225;28;20081;-78
2021/03/30 06:05:41;;;;;;;;;;;13.00;87.60;;;;;;5012556;28;20057;-80
2021/03/30 06:08:07;;;;;;;18.45;8.88;;;12.80;86.50;;;;;;5012183;28;19931;-77
2021/03/30 06:10:35;;;;;;;14.05;8.75;;;12.50;87.00;;;;;;4994373;28;20018;-78
2021/03/30 06:13:04;;;;;;;14.25;7.15;;;12.50;88.70;;;;;;5012182;28;20723;-76
2021/03/30 06:15:35;;;;;;;14.55;7.55;;;12.70;87.00;;;;;;5012063;28;20050;-78
2021/03/30 06:18:17;;;;;;;14.05;7.25;;;12.80;83.60;;;;;;5011832;28;20025;-78
2021/03/30 06:20:43;;;;;;;18.05;8.50;;;12.90;83.60;;;;;;5012297;28;20052;-78
2021/03/30 06:23:09;;;;;;;12.00;7.30;;;12.70;85.80;;;;;;4994409;28;20065;-79
2021/03/30 06:25:49;;;;;;;15.05;7.55;;;12.60;89.70;;;;;;5011508;28;20022;-78
2021/03/30 06:28:31;;;;;;;13.00;6.65;;;12.20;91.40;;;;;;5011781;28;20022;-76
2021/03/30 06:31:06;;;;;;;11.63;6.93;;;12.40;91.10;;;;;;4994442;28;20026;-79
2021/03/30 06:33:44;;;;;;;11.70;6.30;;;12.50;90.70;;;;;;5012048;28;20044;-78
2021/03/30 06:36:11;;;;;;;11.68;7.28;;;12.70;88.70;;;;;;5011884;28;20125;-77
2021/03/30 06:38:55;;;;;;;13.82;6.88;;;12.80;89.00;;;;;;5011893;28;20030;-79
2021/03/30 06:41:52;;;;;;;12.43;7.03;;;13.00;85.50;;;;;;5011882;28;20022;-78
2021/03/30 06:44:28;;;;;;;13.57;7.28;;;13.10;83.30;;;;;;5004337;28;20088;-76
2021/03/30 06:47:18;;;;;;;14.65;7.22;;;12.90;83.30;;;;;;5011057;28;20026;-77
2021/03/30 06:49:54;;;;;;;10.65;6.95;;;13.10;83.60;;;;;;5010465;28;20563;-77
2021/03/30 06:52:40;;;;;;;16.23;7.20;;;13.10;81.60;;;;;;5010833;28;20362;-77
2021/03/30 06:55:08;;;;;;;12.57;6.70;;;13.30;79.50;;;;;;4999347;28;20498;-79
2021/03/30 06:57:38;;;;;;;14.77;7.07;;;13.40;77.80;;;;;;4993323;28;20029;-79
2021/03/30 07:00:10;;;;;;;12.23;6.30;;;13.50;76.10;;;;;;5011999;28;20365;-79
2021/03/30 07:02:45;;;;;;;11.07;6.13;;;13.80;74.40;;;;;;4993964;28;20076;-80
2021/03/30 07:05:36;;;;;;;12.57;6.22;;;14.00;71.80;;;;;;5019675;28;20361;-80
2021/03/30 07:08:24;;;;;;;11.23;6.45;;;14.30;70.20;;;;;;5020494;28;20072;-79
2021/03/30 07:10:55;;;;;;;9.25;6.55;;;14.40;70.20;;;;;;5030781;28;20078;-78
2021/03/30 07:13:23;;;;;;;10.18;5.68;;;14.20;69.00;;;;;;5022699;28;20099;-79
2021/03/30 07:15:54;;;;;;;10.65;5.97;;;14.10;68.20;;;;;;5011585;28;20033;-79
2021/03/30 07:18:43;;;;;;;9.18;5.55;;;14.00;69.20;;;;;;5011694;28;20026;-78
2021/03/30 07:21:19;;;;;;;13.65;6.72;;;14.40;68.70;;;;;;5011528;28;20037;-81
2021/03/30 07:24:09;;;;;;;9.68;6.18;;;14.30;68.50;;;;;;4993758;28;20033;-77
2021/03/30 07:26:39;;;;;;;11.45;6.30;;;14.30;68.10;;;;;;5011445;28;20021;-78
2021/03/30 07:29:14;;;;;;;12.35;6.07;;;14.50;68.00;;;;;;5011458;28;20462;-78
2021/03/30 07:32:18;;;;;;;10.93;6.47;;;14.70;68.10;;;;;;5011198;28;20370;-80
2021/03/30 07:35:01;;;;;;;10.98;5.85;;;14.70;67.90;;;;;;4961893;28;20030;-79
2021/03/30 07:37:54;;;;;;;10.90;6.10;;;14.60;68.50;;;;;;5013995;28;20105;-79
2021/03/30 07:40:21;;;;;;;12.80;6.55;;;14.60;67.70;;;;;;5014996;28;20049;-78
2021/03/30 07:42:49;;;;;;;12.60;5.40;;;14.90;67.90;;;;;;5014906;28;20163;-77
2021/03/30 07:45:21;;;;;;;11.27;6.22;;;14.70;66.00;;;;;;4997994;28;20045;-79
2021/03/30 07:47:47;;;;;;;11.95;5.80;;;14.60;64.50;;;;;;4997218;28;20369;-80
2021/03/30 07:50:17;;;;;;;8.98;5.15;;;14.50;65.10;;;;;;5015087;28;20049;-80
2021/03/30 07:52:48;;;;;;;7.93;4.72;;;14.60;64.30;;;;;;5014552;28;20014;-80
2021/03/30 07:55:28;;;;;;;8.18;5.03;;;14.60;65.10;;;;;;5015310;28;20029;-78
2021/03/30 07:58:11;;;;;;;7.90;4.72;;;14.70;63.60;;;;;;5014535;28;20097;-80
2021/03/30 08:00:37;;;;;;;9.05;4.50;;;14.60;63.80;;;;;;5015108;28;20032;-80
2021/03/30 08:03:11;;;;;;;9.30;4.50;;;14.80;63.00;;;;;;5014616;28;20038;-79
2021/03/30 08:05:38;;;;;;;9.55;4.80;;;14.70;61.70;;;;;;5024482;28;20048;-78
2021/03/30 08:08:21;;;;;;;8.05;4.43;;;14.60;61.30;;;;;;5016838;28;20022;-80
2021/03/30 08:10:48;;;;;;;8.20;4.25;;;14.80;60.80;;;;;;5034209;28;20122;-80
2021/03/30 08:13:24;;;;;;;10.18;4.40;;;14.80;60.40;;;;;;5026977;28;20405;-79
2021/03/30 08:15:52;;;;;;;9.07;4.97;;;14.90;61.20;;;;;;5014509;28;20377;-79
2021/03/30 08:18:20;;;;;;;9.00;5.00;;;14.90;62.00;;;;;;5014525;28;20405;-79
2021/03/30 08:21:08;;;;;;;8.98;5.10;;;15.10;61.10;;;;;;4996602;28;20473;-81
2021/03/30 08:23:52;;;;;;;8.32;4.82;;;15.40;60.90;;;;;;5014035;28;20034;-79
2021/03/30 08:26:30;;;;;;;11.93;5.05;;;15.70;60.90;;;;;;5013132;28;20018;-81
2021/03/30 08:29:02;;;;;;;10.32;5.25;;;16.10;60.40;;;;;;5003651;28;20054;-79
2021/03/30 08:31:35;;;;;;;8.57;4.60;;;16.60;60.70;;;;;;4994780;28;20611;-77
2021/03/30 08:34:07;;;;;;;11.15;5.35;;;16.80;57.50;;;;;;4994405;28;20524;-80
2021/03/30 08:36:45;;;;;;;9.80;5.88;;;16.80;57.60;;;;;;4994124;28;20029;-81
2021/03/30 08:39:30;;;;;;;14.13;6.95;;;17.40;57.00;;;;;;4994162;28;20051;-80
2021/03/30 08:42:01;;;;;;;12.00;5.55;;;17.70;56.70;;;;;;4994045;28;20022;-79
2021/03/30 08:44:42;;;;;;;9.43;4.68;;;17.80;55.80;;;;;;5011243;28;20036;-79
2021/03/30 08:47:09;;;;;;;11.88;5.05;;;17.60;54.40;;;;;;5013345;28;20022;-81
2021/03/30 08:49:43;;;;;;;10.73;5.18;;;17.60;55.20;;;;;;5013507;28;20018;-78
2021/03/30 08:52:14;;;;;;;10.68;5.20;;;17.50;53.70;;;;;;5013023;28;20204;-81
2021/03/30 08:54:59;;;;;;;9.23;5.28;;;17.80;54.10;;;;;;4993867;28;20057;-81
2021/03/30 08:57:32;;;;;;;8.27;4.57;;;18.40;53.40;;;;;;4994198;28;20105;-78
2021/03/30 09:00:01;;;;;;;8.32;4.30;;;18.40;52.00;;;;;;4996006;28;20034;-82
2021/03/30 09:02:28;;;;;;;10.68;4.22;;;18.90;52.20;;;;;;4994817;28;20178;-79
2021/03/30 09:04:55;;;;;;;9.68;4.25;;;18.90;53.00;;;;;;5012791;28;20026;-79
2021/03/30 09:07:21;;;;;;;7.28;3.90;;;18.10;52.20;;;;;;5012801;28;20041;-80
2021/03/30 09:09:48;;;;;;;9.32;3.70;;;17.80;52.10;;;;;;5012896;28;20354;-80
2021/03/30 09:12:21;;;;;;;7.97;3.50;;;17.70;52.60;;;;;;5012261;28;20038;-80
2021/03/30 09:15:03;;;;;;;6.78;3.70;;;17.60;51.40;;;;;;4993264;28;20458;-81
2021/03/30 09:17:29;;;;;;;8.10;3.35;;;18.20;51.30;;;;;;4993708;28;20036;-80
2021/03/30 09:19:56;;;;;;;5.32;3.42;;;17.30;52.30;;;;;;4993371;28;20026;-79
2021/03/30 09:25:21;;;;;;;9.18;3.85;;;17.30;50.70;;;;;;4993483;28;20041;-79
2021/03/30 09:27:47;;;;;;;6.85;3.50;;;17.40;50.70;;;;;;4996684;28;20014;-78
2021/03/30 09:30:16;;;;;;;7.15;3.92;;;17.90;49.70;;;;;;5013347;28;20029;-80
2021/03/30 09:32:44;;;;;;;6.78;3.15;;;18.90;49.90;;;;;;5013884;28;20052;-78
2021/03/30 09:35:18;;;;;;;10.65;3.00;;;19.00;47.20;;;;;;5018686;28;20022;-78
2021/03/30 09:37:48;;;;;;;6.88;3.40;;;19.00;47.10;;;;;;4998378;28;20469;-80
2021/03/30 09:40:29;;;;;;;6.18;2.80;;;19.00;47.10;;;;;;4987974;28;20034;-80
2021/03/30 09:42:57;;;;;;;9.75;2.92;;;19.30;47.50;;;;;;5006962;28;20351;-79
2021/03/30 09:45:27;;;;;;;5.45;3.30;;;18.00;49.20;;;;;;4993484;28;20041;-78
2021/03/30 09:47:54;;;;;;;7.60;3.25;;;18.60;49.30;;;;;;5008896;28;20104;-80
2021/03/30 09:50:48;;;;;;;8.30;3.10;;;19.30;48.60;;;;;;5011890;28;20033;-84
2021/03/30 09:53:14;;;;;;;5.55;2.70;;;19.20;47.10;;;;;;4996288;28;20365;-80
2021/03/30 09:55:43;;;;;;;7.13;3.17;;;18.00;48.10;;;;;;4995399;28;20380;-82
2021/03/30 09:58:44;;;;;;;6.68;3.28;;;17.80;48.40;;;;;;5012043;28;20047;-83
2021/03/30 10:01:11;;;;;;;5.78;3.28;;;18.20;48.30;;;;;;4975770;28;20121;-79
2021/03/30 10:03:43;;;;;;;7.57;3.53;;;17.90;48.40;;;;;;4994526;28;20842;-82
2021/03/30 10:06:21;;;;;;;5.47;2.72;;;17.90;48.60;;;;;;5027220;28;20164;-83
2021/03/30 10:09:04;;;;;;;5.68;2.90;;;17.00;50.10;;;;;;5029273;28;20017;-80
2021/03/30 10:11:39;;;;;;;6.50;3.15;;;16.50;50.60;;;;;;4994722;28;20022;-85
2021/03/30 10:14:26;;;;;;;7.82;3.20;;;17.60;49.30;;;;;;5001596;28;20140;-81
2021/03/30 10:16:54;;;;;;;6.53;3.30;;;16.60;49.50;;;;;;5014904;28;20376;-79
2021/03/30 10:19:21;;;;;;;6.10;3.33;;;16.70;49.70;;;;;;5032227;28;20126;-83
2021/03/30 10:21:52;;;;;;;7.95;3.15;;;17.40;49.10;;;;;;5014210;28;20029;-84
2021/03/30 10:24:21;;;;;;;9.10;2.97;;;17.10;49.10;;;;;;5014103;28;20037;-84
2021/03/30 10:27:09;;;;;;;5.40;2.60;;;18.30;47.30;;;;;;5014806;28;20021;-85
2021/03/30 10:29:44;;;;;;;9.35;2.80;;;19.40;47.00;;;;;;5014246;28;20033;-84
2021/03/30 10:32:17;;;;;;;11.18;3.20;;;20.50;46.80;;;;;;5032842;28;20029;-83
2021/03/30 10:34:47;;;;;;;7.25;2.85;;;21.20;45.20;;;;;;5014445;28;20495;-85
2021/03/30 10:37:14;;;;;;;6.75;2.80;;;20.00;44.60;;;;;;5032893;28;20211;-83
2021/03/30 10:39:44;;;;;;;6.10;3.08;;;20.00;44.90;;;;;;5014165;28;20118;-84
2021/03/30 10:42:14;;;;;;;11.45;3.35;;;20.30;45.10;;;;;;5007650;28;20064;-82
2021/03/30 10:44:55;;;;;;;9.85;3.10;;;21.00;45.90;;;;;;5012017;28;20029;-81
2021/03/30 10:47:28;;;;;;;5.78;2.72;;;22.00;45.60;;;;;;5013347;28;20483;-83
2021/03/30 10:49:55;;;;;;;7.90;3.35;;;22.30;43.90;;;;;;5030709;28;20033;-82
2021/03/30 10:52:26;;;;;;;7.70;3.33;;;22.30;43.10;;;;;;5030387;28;20017;-84
2021/03/30 10:54:55;;;;;;;6.15;3.05;;;21.80;43.80;;;;;;5031308;28;20022;-81
2021/03/30 10:57:23;;;;;;;9.35;3.10;;;22.20;43.60;;;;;;5031893;28;20600;-83
2021/03/30 10:59:49;;;;;;;8.32;4.28;;;22.70;43.00;;;;;;5013331;28;20392;-83
2021/03/30 11:02:19;;;;;;;9.07;3.42;;;22.20;41.60;;;;;;5014242;28;20596;-81
2021/03/30 11:04:45;;;;;;;8.10;3.53;;;21.10;42.30;;;;;;5033461;28;20060;-83
2021/03/30 11:07:17;;;;;;;9.48;3.50;;;20.20;45.10;;;;;;5051127;28;20372;-82
2021/03/30 11:09:43;;;;;;;6.78;3.35;;;20.90;44.90;;;;;;5051317;28;20461;-81
2021/03/30 11:12:11;;;;;;;7.55;3.20;;;20.60;43.80;;;;;;5055683;28;20057;-80
2021/03/30 11:14:40;;;;;;;5.95;3.30;;;20.30;43.50;;;;;;5037175;28;20037;-86
2021/03/30 11:17:06;;;;;;;5.80;2.83;;;19.90;43.50;;;;;;5055109;28;20017;-81
2021/03/30 11:19:32;;;;;;;7.13;3.17;;;19.80;42.90;;;;;;5038420;28;20036;-84
2021/03/30 11:21:58;;;;;;;9.45;3.47;;;20.40;43.80;;;;;;5055331;28;20032;-80
2021/03/30 11:24:26;;;;;;;7.63;3.25;;;21.30;42.80;;;;;;5054771;28;20371;-82
2021/03/30 11:26:58;;;;;;;6.55;2.67;;;21.80;42.70;;;;;;5037280;28;20025;-84
2021/03/30 11:32:50;;;;;;;5.07;2.63;;;17.90;45.00;;;;;;5046150;28;20360;-82
2021/03/30 11:35:25;;;;;;;6.72;3.42;;;18.90;44.70;;;;;;5026452;28;20079;-81
2021/03/30 11:40:12;;;;;;;5.95;2.88;;;19.40;43.40;;;;;;5034982;28;20107;-78
2021/03/30 11:42:38;;;;;;;8.32;2.97;;;21.20;44.00;;;;;;5033615;28;20341;-83
2021/03/30 11:45:04;;;;;;;7.05;3.13;;;22.10;42.20;;;;;;5033091;28;20510;-81
2021/03/30 11:47:30;;;;;;;5.88;2.78;;;20.20;41.80;;;;;;5018578;28;20104;-83
2021/03/30 11:49:56;;;;;;;7.93;3.38;;;21.30;42.80;;;;;;5033908;28;20140;-80
2021/03/30 11:52:22;;;;;;;9.55;3.28;;;19.80;42.00;;;;;;5023431;28;20017;-82
2021/03/30 11:54:48;;;;;;;5.97;2.92;;;19.60;42.70;;;;;;5033141;28;20021;-82
2021/03/30 11:57:14;;;;;;;7.38;3.40;;;20.00;43.70;;;;;;5023345;28;20035;-83
2021/03/30 11:59:40;;;;;;;6.03;2.90;;;20.30;43.70;;;;;;5033358;28;20032;-81
2021/03/30 12:02:07;;;;;;;5.85;3.08;;;18.80;43.10;;;;;;5033344;28;20021;-84
2021/03/30 12:04:33;;;;;;;7.13;2.83;;;18.70;44.20;;;;;;5033181;28;20013;-81
2021/03/30 12:06:59;;;;;;;8.38;2.83;;;19.40;44.10;;;;;;5034900;28;20021;-81
2021/03/30 12:09:25;;;;;;;6.93;3.00;;;20.30;41.30;;;;;;5022697;28;20075;-79
2021/03/30 12:11:50;;;;;;;6.88;3.67;;;20.50;42.00;;;;;;5032351;28;20030;-80
2021/03/30 12:14:17;;;;;;;4.57;2.70;;;21.10;41.10;;;;;;5031373;28;20045;-79
2021/03/30 12:16:46;;;;;;;6.93;3.30;;;21.10;41.20;;;;;;5029819;28;20017;-83
2021/03/30 12:19:14;;;;;;;5.20;2.67;;;21.30;40.30;;;;;;5031542;28;20013;-81
2021/03/30 12:21:40;;;;;;;9.18;3.80;;;21.10;39.90;;;;;;5026111;28;20104;-80
2021/03/30 12:24:06;;;;;;;8.20;2.78;;;21.60;40.80;;;;;;5031978;28;20113;-82
2021/03/30 12:26:32;;;;;;;6.50;2.75;;;22.20;40.20;;;;;;5031648;28;20022;-80
2021/03/30 12:29:00;;;;;;;8.93;2.83;;;22.80;40.00;;;;;;5031447;28;20511;-82
2021/03/30 12:31:26;;;;;;;6.13;2.70;;;23.40;39.60;;;;;;5035272;28;20682;-82
2021/03/30 12:33:52;;;;;;;6.43;2.63;;;23.50;38.70;;;;;;5023029;28;20531;-82
2021/03/30 12:36:18;;;;;;;7.18;2.70;;;23.80;39.10;;;;;;5033002;28;20504;-82
2021/03/30 12:38:43;;;;;;;6.18;2.60;;;23.90;37.60;;;;;;5034844;28;20515;-82
2021/03/30 12:41:09;;;;;;;5.68;2.65;;;23.40;37.40;;;;;;5032799;28;20121;-80
2021/03/30 12:43:35;;;;;;;5.50;3.00;;;23.70;38.20;;;;;;5021904;28;20045;-82
2021/03/30 12:46:01;;;;;;;6.55;2.67;;;23.70;37.60;;;;;;5032990;28;20022;-83
2021/03/30 12:48:26;;;;;;;7.35;3.17;;;23.60;37.70;;;;;;5031881;28;20364;-84
2021/03/30 12:50:52;;;;;;;6.65;3.08;;;22.10;38.70;;;;;;5032318;28;20060;-83
2021/03/30 12:53:18;;;;;;;6.60;2.70;;;22.10;38.50;;;;;;5031317;28;20053;-80
2021/03/30 12:55:44;;;;;;;9.00;2.78;;;22.10;39.00;;;;;;5031466;28;20021;-81
2021/03/30 12:58:09;;;;;;;7.90;3.00;;;22.20;39.40;;;;;;5021668;28;20461;-81
2021/03/30 13:00:35;;;;;;;8.82;3.08;;;21.80;38.80;;;;;;5022688;28;20461;-82
2021/03/30 13:03:01;;;;;;;5.90;2.58;;;22.40;38.80;;;;;;5032346;28;20092;-81
2021/03/30 13:05:28;;;;;;;8.25;2.65;;;22.70;37.40;;;;;;5032433;28;20067;-80
2021/03/30 13:07:54;;;;;;;6.65;3.20;;;22.30;37.80;;;;;;5021792;28;20067;-81
2021/03/30 13:10:19;;;;;;;7.40;3.08;;;20.70;39.20;;;;;;5031573;28;20033;-82